Time;durP1;ratioP1;P1;durP2;ratioP2;P2;SDS_P1;SDS_P2;PMS_P1;PMS_P2;Temp;Humidity;BMP_temperature;BMP_pressure;BME280_temperature;BME280_humidity;BME280_pressure;Samples;Min_cycle;Max_cycle;Signal;HPM_P1;HPM_P2
2022/01/24 00:01:42;;;;;;;21.10;15.03;;;-3.90;99.90;;;;;;5098495;28;20494;-76
2022/01/24 00:04:09;;;;;;;18.63;14.87;;;-3.90;99.90;;;;;;5097536;28;20432;-83
2022/01/24 00:06:35;;;;;;;14.67;12.47;;;-3.60;99.90;;;;;;5098636;28;20421;-82
2022/01/24 00:09:04;;;;;;;18.83;14.03;;;-1.40;99.90;;;;;;5096704;28;20882;-73
2022/01/24 00:11:42;;;;;;;21.93;14.30;;;-3.30;99.90;;;;;;5098281;28;20399;-72
2022/01/24 00:15:18;;;;;;;16.87;11.73;;;-4.10;99.90;;;;;;5098403;28;20410;-75
2022/01/24 00:27:52;;;;;;;18.93;13.23;;;-3.80;99.90;;;;;;5097885;28;21156;-71
2022/01/24 00:30:18;;;;;;;16.97;11.13;;;-3.60;99.90;;;;;;5096737;28;20409;-71
2022/01/24 00:32:44;;;;;;;16.37;12.43;;;-2.80;99.90;;;;;;5097778;28;20393;-72
2022/01/24 00:35:11;;;;;;;17.20;11.93;;;-3.10;99.90;;;;;;5096698;28;20472;-76
2022/01/24 00:37:37;;;;;;;13.30;11.00;;;-2.70;99.90;;;;;;5097183;28;20408;-72
2022/01/24 00:40:04;;;;;;;14.70;12.10;;;-2.50;99.90;;;;;;5096462;28;20803;-73
2022/01/24 00:42:49;;;;;;;19.53;12.40;;;-3.60;99.90;;;;;;5096549;28;20408;-78
2022/01/24 00:53:50;;;;;;;15.63;10.53;;;-4.10;99.90;;;;;;5096614;28;20311;-73
2022/01/24 00:56:04;;;;;;;15.37;12.77;;;-4.20;99.90;;;;;;5096804;28;20709;-79
2022/01/24 00:58:29;;;;;;;13.23;9.90;;;-3.60;99.90;;;;;;5097361;28;20408;-76
2022/01/24 01:00:55;;;;;;;13.10;10.77;;;-3.90;99.90;;;;;;5097341;28;20410;-75
2022/01/24 01:03:21;;;;;;;14.13;10.17;;;-4.00;99.90;;;;;;5097226;28;20196;-80
2022/01/24 01:18:59;;;;;;;15.27;11.80;;;-4.60;99.90;;;;;;5096949;28;20422;-74
2022/01/24 01:21:25;;;;;;;13.87;10.13;;;-4.60;99.90;;;;;;5096684;28;20398;-80
2022/01/24 01:23:56;;;;;;;14.00;10.63;;;-3.60;99.90;;;;;;5097085;28;20230;-75
2022/01/24 01:27:02;;;;;;;14.13;10.37;;;-4.10;99.90;;;;;;5096806;28;20419;-76
2022/01/24 01:29:23;;;;;;;16.53;11.17;;;-4.80;99.90;;;;;;5095805;28;20446;-73
2022/01/24 01:37:42;;;;;;;13.57;10.17;;;-4.30;99.90;;;;;;5096577;28;20396;-72
2022/01/24 01:40:26;;;;;;;14.47;11.10;;;-4.40;99.90;;;;;;5097307;28;20790;-71
2022/01/24 01:56:29;;;;;;;18.87;10.93;;;-4.10;99.90;;;;;;5096266;28;20189;-75
2022/01/24 01:58:54;;;;;;;15.13;9.70;;;-4.30;99.90;;;;;;5096120;28;20406;-72
2022/01/24 02:01:20;;;;;;;14.20;10.63;;;-4.20;99.90;;;;;;5095250;28;20607;-72
2022/01/24 02:03:46;;;;;;;15.20;12.80;;;-4.40;99.90;;;;;;5096028;28;20182;-73
2022/01/24 02:06:12;;;;;;;14.70;11.70;;;-4.50;99.90;;;;;;5095929;28;20531;-72
2022/01/24 02:08:40;;;;;;;13.90;11.13;;;-4.60;99.90;;;;;;5095764;28;20543;-76
2022/01/24 02:11:09;;;;;;;14.17;12.00;;;-4.30;99.90;;;;;;5096038;28;20227;-75
2022/01/24 02:13:35;;;;;;;14.60;11.73;;;-4.40;99.90;;;;;;5096038;28;20433;-75
2022/01/24 02:19:05;;;;;;;16.80;12.00;;;-4.60;99.90;;;;;;5096099;28;20423;-73
2022/01/24 02:21:44;;;;;;;14.73;10.93;;;-4.90;99.90;;;;;;5095713;28;20419;-72
2022/01/24 02:24:12;;;;;;;13.87;10.87;;;-4.10;99.90;;;;;;5095643;28;20410;-74
2022/01/24 02:26:39;;;;;;;16.83;12.23;;;-3.90;99.90;;;;;;5095849;28;20402;-77
2022/01/24 02:29:28;;;;;;;15.03;11.30;;;-3.90;99.90;;;;;;5095708;28;20449;-72
2022/01/24 02:31:53;;;;;;;14.47;11.37;;;-4.60;99.90;;;;;;5095759;28;20765;-74
2022/01/24 02:34:30;;;;;;;13.87;10.20;;;-4.80;99.90;;;;;;5095376;28;20740;-75
2022/01/24 02:36:59;;;;;;;14.93;12.07;;;-5.10;99.90;;;;;;5095762;28;20404;-74
2022/01/24 02:50:05;;;;;;;13.93;11.13;;;-4.70;99.90;;;;;;5095279;28;20404;-72
2022/01/24 02:52:31;;;;;;;15.17;11.57;;;-4.60;99.90;;;;;;5095878;28;20425;-72
2022/01/24 02:54:57;;;;;;;15.37;11.83;;;-4.20;99.90;;;;;;5095545;28;20453;-71
2022/01/24 02:57:23;;;;;;;14.30;12.20;;;-4.00;99.90;;;;;;5095484;28;20383;-71
2022/01/24 02:59:49;;;;;;;17.00;11.33;;;-3.80;99.90;;;;;;5094271;28;20263;-72
2022/01/24 03:02:15;;;;;;;15.27;11.43;;;-4.20;99.90;;;;;;5095382;28;20501;-73
2022/01/24 03:04:41;;;;;;;15.13;11.37;;;-2.70;99.90;;;;;;5095509;28;20178;-74
2022/01/24 03:07:07;;;;;;;15.37;11.70;;;-5.60;99.90;;;;;;5094172;28;20174;-71
2022/01/24 03:09:33;;;;;;;16.80;12.57;;;-4.50;99.90;;;;;;5094231;28;20185;-72
2022/01/24 03:12:07;;;;;;;17.67;13.73;;;-4.30;99.90;;;;;;5095445;28;20167;-71
2022/01/24 03:14:36;;;;;;;15.27;12.27;;;-5.00;99.90;;;;;;5095350;28;20713;-74
2022/01/24 03:17:05;;;;;;;16.07;12.37;;;-4.00;99.90;;;;;;5099017;28;20822;-76
2022/01/24 03:19:31;;;;;;;19.17;13.80;;;-4.60;99.90;;;;;;5098043;28;20491;-75
2022/01/24 03:21:57;;;;;;;17.27;13.03;;;-4.70;99.90;;;;;;5099305;28;20472;-72
2022/01/24 03:24:23;;;;;;;14.93;11.73;;;-4.50;99.90;;;;;;5097933;28;20854;-72
2022/01/24 03:26:49;;;;;;;20.33;15.10;;;-3.70;99.90;;;;;;5097978;28;20177;-72
2022/01/24 03:29:15;;;;;;;16.20;13.03;;;-2.80;99.90;;;;;;5097771;28;20457;-76
2022/01/24 03:31:42;;;;;;;19.17;14.00;;;-4.30;99.90;;;;;;5098842;28;20405;-72
2022/01/24 03:34:09;;;;;;;16.63;12.90;;;-4.60;99.90;;;;;;5098965;28;20450;-78
2022/01/24 03:36:34;;;;;;;18.17;13.50;;;-4.70;99.90;;;;;;5098985;28;20448;-70
2022/01/24 03:39:01;;;;;;;16.97;13.67;;;-3.90;99.90;;;;;;5098528;28;20472;-71
2022/01/24 03:41:27;;;;;;;17.97;14.13;;;-4.60;99.90;;;;;;5098931;28;20276;-74
2022/01/24 03:43:53;;;;;;;22.83;13.70;;;-4.60;99.90;;;;;;5098763;28;20920;-71
2022/01/24 03:48:50;;;;;;;19.63;13.40;;;-4.70;99.90;;;;;;5098801;28;20542;-71
2022/01/24 03:51:17;;;;;;;22.10;14.73;;;-4.30;99.90;;;;;;5098546;28;20476;-72
2022/01/24 03:53:44;;;;;;;17.13;12.93;;;-4.50;99.90;;;;;;5097540;28;20399;-79
2022/01/24 03:56:10;;;;;;;19.43;13.80;;;-4.60;99.90;;;;;;5098474;28;20422;-71
2022/01/24 03:58:36;;;;;;;21.03;15.47;;;-4.20;99.90;;;;;;5098600;28;20498;-83
2022/01/24 04:01:05;;;;;;;18.70;13.70;;;-4.10;99.90;;;;;;5098252;28;20834;-78
2022/01/24 04:03:31;;;;;;;17.87;13.07;;;-3.80;99.90;;;;;;5098375;28;20406;-74
2022/01/24 04:05:57;;;;;;;17.77;13.03;;;-4.40;99.90;;;;;;5098456;28;20413;-72
2022/01/24 04:08:22;;;;;;;22.43;13.97;;;-3.80;99.90;;;;;;5098190;28;20241;-73
2022/01/24 04:10:52;;;;;;;23.20;14.00;;;-4.50;99.90;;;;;;5098232;28;20528;-74
2022/01/24 04:21:26;;;;;;;19.00;12.33;;;-2.30;99.90;;;;;;5097856;28;20405;-73
2022/01/24 04:26:23;;;;;;;21.57;14.00;;;-3.90;99.90;;;;;;5097108;28;20494;-72
2022/01/24 04:28:49;;;;;;;22.57;14.70;;;-3.10;99.90;;;;;;5097978;28;20534;-77
2022/01/24 04:31:15;;;;;;;24.07;15.93;;;-4.30;99.90;;;;;;5097638;28;20623;-75
2022/01/24 04:33:41;;;;;;;22.63;13.67;;;-2.60;99.90;;;;;;5098630;28;20176;-84
2022/01/24 04:36:07;;;;;;;19.10;13.03;;;-4.90;99.90;;;;;;5098813;28;20827;-74
2022/01/24 04:38:33;;;;;;;19.37;14.50;;;-2.80;99.90;;;;;;5099053;28;20274;-71
2022/01/24 04:41:03;;;;;;;22.60;14.40;;;-4.60;99.90;;;;;;5098273;28;20607;-74
2022/01/24 04:51:40;;;;;;;20.33;14.53;;;-3.00;99.90;;;;;;5098481;28;20176;-76
2022/01/24 04:56:30;;;;;;;23.23;15.43;;;-4.10;99.90;;;;;;5097356;28;20404;-77
2022/01/24 04:58:56;;;;;;;25.53;16.50;;;-3.40;99.90;;;;;;5097153;28;20738;-74
2022/01/24 05:01:23;;;;;;;19.57;13.53;;;-4.20;99.90;;;;;;5097044;28;20489;-74
2022/01/24 05:03:48;;;;;;;19.03;13.63;;;-4.50;99.90;;;;;;5097204;28;20493;-74
2022/01/24 05:06:14;;;;;;;22.57;15.37;;;-4.50;99.90;;;;;;5096081;28;20474;-74
2022/01/24 05:08:40;;;;;;;19.47;13.77;;;-4.90;99.90;;;;;;5095888;28;20261;-74
2022/01/24 05:11:10;;;;;;;24.53;14.87;;;-5.10;99.90;;;;;;5095891;28;20402;-72
2022/01/24 05:24:32;;;;;;;21.87;13.57;;;-4.40;99.90;;;;;;5097405;28;20421;-75
2022/01/24 05:26:58;;;;;;;19.87;12.97;;;-2.50;99.90;;;;;;5096682;28;20410;-72
2022/01/24 05:29:24;;;;;;;19.60;13.20;;;-2.60;99.90;;;;;;5096655;28;20414;-72
2022/01/24 05:31:50;;;;;;;18.37;14.33;;;-3.70;99.90;;;;;;5096805;28;20169;-72
2022/01/24 05:34:15;;;;;;;17.80;12.90;;;-3.60;99.90;;;;;;5097431;28;20164;-72
2022/01/24 05:36:41;;;;;;;21.27;13.63;;;-3.30;99.90;;;;;;5096790;28;20177;-73
2022/01/24 05:39:07;;;;;;;20.30;13.77;;;-3.00;99.90;;;;;;5096077;28;20192;-72
2022/01/24 05:41:35;;;;;;;20.80;14.33;;;-3.00;99.90;;;;;;5096375;28;20180;-72
2022/01/24 05:44:01;;;;;;;23.90;15.83;;;-4.10;99.90;;;;;;5096330;28;20166;-82
2022/01/24 05:46:27;;;;;;;20.13;14.10;;;-4.20;99.90;;;;;;5096423;28;20426;-73
2022/01/24 05:48:54;;;;;;;18.87;13.60;;;-4.30;99.90;;;;;;5096124;28;20593;-72
2022/01/24 05:51:21;;;;;;;18.07;13.70;;;-3.60;99.90;;;;;;5096411;28;20215;-73
2022/01/24 05:53:47;;;;;;;23.90;15.07;;;-4.10;99.90;;;;;;5096221;28;20452;-72
2022/01/24 05:56:12;;;;;;;16.13;12.87;;;-1.90;99.90;;;;;;5096244;28;20783;-74
2022/01/24 05:58:38;;;;;;;22.13;14.90;;;-2.50;99.90;;;;;;5096083;28;20221;-72
2022/01/24 06:01:04;;;;;;;23.07;13.30;;;-4.50;99.90;;;;;;5095218;28;20176;-72
2022/01/24 06:03:30;;;;;;;19.83;12.97;;;-4.50;99.90;;;;;;5095988;28;20173;-72
2022/01/24 06:05:56;;;;;;;20.20;14.43;;;-4.60;99.90;;;;;;5096425;28;20167;-72
2022/01/24 06:08:21;;;;;;;21.67;14.83;;;-3.00;99.90;;;;;;5095838;28;20227;-74
2022/01/24 06:10:48;;;;;;;21.90;15.67;;;-2.90;99.90;;;;;;5096385;28;20295;-73
2022/01/24 06:13:14;;;;;;;21.53;14.07;;;-4.50;99.90;;;;;;5095286;28;20253;-73
2022/01/24 06:15:41;;;;;;;21.63;13.97;;;-4.60;99.90;;;;;;5096040;28;20712;-79
2022/01/24 06:18:07;;;;;;;19.47;13.30;;;-3.80;99.90;;;;;;5095741;28;21131;-78
2022/01/24 06:20:33;;;;;;;19.63;12.90;;;-3.10;99.90;;;;;;5095963;28;20399;-72
2022/01/24 06:22:58;;;;;;;21.47;14.10;;;-2.80;99.90;;;;;;5095837;28;20248;-75
2022/01/24 06:25:25;;;;;;;20.77;14.53;;;-6.80;99.90;;;;;;5095667;28;20512;-75
2022/01/24 06:27:51;;;;;;;21.77;14.43;;;-3.10;99.90;;;;;;5095527;28;20185;-72
2022/01/24 06:30:17;;;;;;;19.17;13.63;;;-4.70;99.90;;;;;;5095730;28;20390;-74
2022/01/24 06:32:43;;;;;;;18.97;12.90;;;-3.70;99.90;;;;;;5095969;28;20675;-72
2022/01/24 06:35:11;;;;;;;20.17;13.73;;;-4.40;99.90;;;;;;5095902;28;20402;-76
2022/01/24 06:37:38;;;;;;;18.70;13.67;;;-4.80;99.90;;;;;;5095718;28;20168;-73
2022/01/24 06:40:06;;;;;;;19.60;14.80;;;-1.80;99.90;;;;;;5095288;28;20432;-79
2022/01/24 06:42:32;;;;;;;21.13;13.03;;;-4.30;99.90;;;;;;5094811;28;20418;-74
2022/01/24 06:45:00;;;;;;;18.17;13.13;;;-4.90;99.90;;;;;;5095671;28;20413;-80
2022/01/24 06:47:26;;;;;;;20.60;14.13;;;-3.40;99.90;;;;;;5095813;28;20189;-78
2022/01/24 06:49:55;;;;;;;20.20;13.80;;;-3.40;99.90;;;;;;5096234;28;20397;-72
2022/01/24 06:52:20;;;;;;;19.60;13.93;;;-5.10;99.90;;;;;;5099958;28;20169;-78
2022/01/24 06:54:46;;;;;;;19.20;13.57;;;-3.40;99.90;;;;;;5087226;28;20487;-78
2022/01/24 06:57:14;;;;;;;19.73;14.73;;;-5.20;99.90;;;;;;5076990;28;20201;-75
2022/01/24 06:59:42;;;;;;;19.43;14.93;;;-5.10;99.90;;;;;;5077641;28;20701;-77
2022/01/24 07:02:09;;;;;;;21.73;14.57;;;-5.00;99.90;;;;;;5098615;28;20459;-76
2022/01/24 07:04:37;;;;;;;20.30;14.03;;;-5.10;99.90;;;;;;5098831;28;20753;-72
2022/01/24 07:07:04;;;;;;;18.60;13.17;;;-5.30;99.90;;;;;;5098889;28;20431;-74
2022/01/24 07:09:30;;;;;;;22.43;13.50;;;-5.20;99.90;;;;;;5098636;28;20753;-72
2022/01/24 07:11:56;;;;;;;21.13;14.27;;;-4.30;99.90;;;;;;5098754;28;20413;-82
2022/01/24 07:14:22;;;;;;;22.30;13.20;;;-5.00;99.90;;;;;;5096214;28;20545;-75
2022/01/24 07:19:16;;;;;;;18.43;13.43;;;-4.70;99.90;;;;;;5098534;28;20184;-78
2022/01/24 07:21:42;;;;;;;24.30;14.03;;;-5.10;99.90;;;;;;5098893;28;20697;-81
2022/01/24 07:24:07;;;;;;;18.73;13.60;;;-5.00;99.90;;;;;;5098117;28;20170;-72
2022/01/24 07:26:33;;;;;;;28.23;14.00;;;-4.90;99.90;;;;;;5095858;28;20169;-73
2022/01/24 07:28:59;;;;;;;22.40;13.57;;;-5.20;99.90;;;;;;5078530;28;20208;-82
2022/01/24 07:31:25;;;;;;;20.83;13.53;;;-5.00;99.90;;;;;;5088530;28;20174;-75
2022/01/24 07:33:51;;;;;;;21.57;13.50;;;-5.10;99.90;;;;;;5080398;28;20243;-72
2022/01/24 07:36:17;;;;;;;19.70;14.33;;;-5.00;99.90;;;;;;5078127;28;20716;-74
2022/01/24 07:38:43;;;;;;;25.07;15.83;;;-4.80;99.90;;;;;;5077307;28;20507;-72
2022/01/24 07:41:08;;;;;;;23.03;15.13;;;-4.80;99.90;;;;;;5077993;28;20181;-73
2022/01/24 07:43:35;;;;;;;20.40;14.50;;;-4.70;99.90;;;;;;5083787;28;20215;-70
2022/01/24 07:46:00;;;;;;;20.10;13.70;;;-4.30;99.90;;;;;;5080431;28;20184;-80
2022/01/24 07:48:35;;;;;;;19.37;13.47;;;-4.20;99.90;;;;;;5076961;28;20449;-70
2022/01/24 07:51:29;;;;;;;21.27;14.93;;;-4.50;99.90;;;;;;5074572;28;20198;-70
2022/01/24 07:54:06;;;;;;;26.27;14.53;;;-4.90;99.90;;;;;;5076811;28;20524;-70
2022/01/24 07:56:32;;;;;;;19.13;14.47;;;-4.40;99.90;;;;;;5095877;28;20407;-78
2022/01/24 07:58:58;;;;;;;19.93;14.13;;;-4.10;99.90;;;;;;5097773;28;20401;-71
2022/01/24 08:01:24;;;;;;;18.07;12.73;;;-4.40;99.90;;;;;;5097578;28;20164;-70
2022/01/24 08:03:52;;;;;;;21.93;15.03;;;-5.00;99.90;;;;;;5097728;28;20484;-70
2022/01/24 08:06:18;;;;;;;18.10;12.13;;;-5.00;99.90;;;;;;5097374;28;20246;-83
2022/01/24 08:08:44;;;;;;;20.67;14.47;;;-5.10;99.90;;;;;;5097257;28;20482;-78
2022/01/24 08:11:10;;;;;;;24.27;15.07;;;-5.00;99.90;;;;;;5097561;28;20420;-70
2022/01/24 08:13:37;;;;;;;22.17;15.07;;;-4.80;99.90;;;;;;5078829;28;20179;-77
2022/01/24 08:16:03;;;;;;;21.47;15.00;;;-4.40;99.90;;;;;;5089162;28;20170;-73
2022/01/24 08:18:29;;;;;;;22.53;15.27;;;-4.90;99.90;;;;;;5096405;28;20427;-73
2022/01/24 08:20:55;;;;;;;20.70;15.20;;;-4.80;99.90;;;;;;5097112;28;20472;-72
2022/01/24 08:23:20;;;;;;;20.40;13.77;;;-3.30;99.90;;;;;;5095925;28;20193;-81
2022/01/24 08:25:46;;;;;;;20.03;13.87;;;-4.80;99.90;;;;;;5096999;28;20234;-71
2022/01/24 08:28:12;;;;;;;20.87;14.13;;;-4.00;99.90;;;;;;5076631;28;20199;-76
2022/01/24 08:30:40;;;;;;;23.20;12.37;;;-4.40;99.90;;;;;;5077195;28;20404;-75
2022/01/24 08:33:06;;;;;;;18.30;12.83;;;-4.70;99.90;;;;;;5077184;28;20246;-77
2022/01/24 08:35:32;;;;;;;22.97;14.93;;;-4.30;99.90;;;;;;5076508;28;20424;-75
2022/01/24 08:37:58;;;;;;;32.73;13.63;;;-4.50;99.90;;;;;;5076672;28;20190;-74
2022/01/24 08:40:26;;;;;;;19.53;12.73;;;-4.50;99.90;;;;;;5075858;28;20859;-79
2022/01/24 08:43:02;;;;;;;17.43;13.63;;;-3.20;99.90;;;;;;5076377;28;20302;-77
2022/01/24 08:45:58;;;;;;;20.57;14.20;;;-4.60;99.90;;;;;;5097199;28;20410;-80
2022/01/24 08:48:31;;;;;;;24.00;13.50;;;-4.60;99.90;;;;;;5095654;28;20459;-75
2022/01/24 08:50:59;;;;;;;18.53;13.13;;;-5.00;99.90;;;;;;5078455;28;20462;-73
2022/01/24 08:53:30;;;;;;;19.67;13.50;;;-3.70;99.90;;;;;;5076815;28;20385;-73
2022/01/24 08:56:01;;;;;;;21.87;13.63;;;-2.80;99.90;;;;;;5076118;28;20393;-79
2022/01/24 08:58:27;;;;;;;21.97;12.87;;;-5.00;99.90;;;;;;5076590;28;20411;-77
2022/01/24 09:00:54;;;;;;;19.27;13.40;;;-4.80;99.90;;;;;;5076661;28;20395;-75
2022/01/24 09:03:20;;;;;;;21.43;13.30;;;-5.20;99.90;;;;;;5075347;28;20401;-75
2022/01/24 09:05:48;;;;;;;27.33;15.87;;;-4.50;99.90;;;;;;5074960;28;20426;-76
2022/01/24 09:08:14;;;;;;;40.57;14.80;;;-4.50;99.90;;;;;;5074895;28;20468;-83
2022/01/24 09:10:40;;;;;;;19.43;14.70;;;-3.80;99.90;;;;;;5074828;28;20440;-81
2022/01/24 09:13:07;;;;;;;22.37;13.43;;;-2.60;99.90;;;;;;5074462;28;20412;-75
2022/01/24 09:15:33;;;;;;;29.10;16.00;;;-4.70;99.90;;;;;;5075294;28;20439;-74
2022/01/24 09:17:59;;;;;;;23.30;14.20;;;-3.60;99.90;;;;;;5075824;28;20444;-81
2022/01/24 09:20:25;;;;;;;21.57;15.07;;;-4.40;99.90;;;;;;5076027;28;20262;-76
2022/01/24 09:22:51;;;;;;;22.40;15.53;;;-4.50;99.90;;;;;;5075101;28;20172;-79
2022/01/24 09:25:19;;;;;;;22.37;14.30;;;-2.60;99.90;;;;;;5075450;28;20446;-82
2022/01/24 09:27:46;;;;;;;24.07;16.00;;;-4.50;99.90;;;;;;5075371;28;20186;-80
2022/01/24 09:30:15;;;;;;;20.73;14.90;;;-4.50;99.90;;;;;;5076164;28;20824;-76
2022/01/24 09:32:41;;;;;;;25.73;16.60;;;-4.40;99.90;;;;;;5073335;28;20945;-81
2022/01/24 09:35:10;;;;;;;20.83;14.97;;;-4.20;99.90;;;;;;5075076;28;20729;-74
2022/01/24 09:37:36;;;;;;;18.37;14.50;;;-2.30;99.90;;;;;;5075493;28;20852;-75
2022/01/24 09:40:03;;;;;;;17.07;13.67;;;-4.40;99.90;;;;;;5079684;28;20434;-75
2022/01/24 09:42:29;;;;;;;19.90;14.23;;;-4.30;99.90;;;;;;5087461;28;20404;-76
2022/01/24 09:44:56;;;;;;;20.77;15.10;;;-3.70;99.90;;;;;;5086534;28;20946;-76
2022/01/24 09:47:22;;;;;;;16.47;11.83;;;-3.50;99.90;;;;;;5095979;28;20212;-77
2022/01/24 09:49:49;;;;;;;21.40;14.87;;;-3.50;99.90;;;;;;5090680;28;20712;-75
2022/01/24 09:52:15;;;;;;;20.60;14.37;;;-3.40;99.90;;;;;;5095868;28;20433;-73
2022/01/24 09:54:41;;;;;;;22.20;15.00;;;-3.70;99.90;;;;;;5095912;28;20395;-74
2022/01/24 09:57:07;;;;;;;18.30;12.53;;;-3.70;99.90;;;;;;5085227;28;20707;-75
2022/01/24 09:59:34;;;;;;;18.47;14.87;;;-3.60;99.90;;;;;;5075519;28;20163;-74
2022/01/24 10:02:01;;;;;;;17.37;13.40;;;-3.70;99.90;;;;;;5075176;28;20392;-74
2022/01/24 10:04:29;;;;;;;19.43;13.50;;;-3.90;99.90;;;;;;5074048;28;20403;-73
2022/01/24 10:06:56;;;;;;;18.90;13.80;;;-4.40;99.90;;;;;;5073716;28;20404;-75
2022/01/24 10:09:36;;;;;;;19.57;14.03;;;-4.40;99.90;;;;;;5075111;28;20452;-74
2022/01/24 10:17:48;;;;;;;21.03;14.30;;;-4.40;99.90;;;;;;5074718;28;20509;-75
2022/01/24 10:20:31;;;;;;;17.27;12.40;;;-3.80;99.90;;;;;;5074632;28;20449;-73
2022/01/24 10:23:13;;;;;;;16.73;13.30;;;-3.80;99.90;;;;;;5073811;28;20183;-77
2022/01/24 10:26:06;;;;;;;19.40;12.60;;;-3.80;99.90;;;;;;5073053;28;20398;-81
2022/01/24 10:28:40;;;;;;;17.63;12.07;;;-3.60;99.90;;;;;;5073210;28;20491;-76
2022/01/24 10:31:16;;;;;;;16.00;12.90;;;-4.00;99.90;;;;;;5074760;28;20393;-77
2022/01/24 10:34:35;;;;;;;17.57;13.93;;;-3.70;99.90;;;;;;5074523;28;20394;-75
2022/01/24 10:36:55;;;;;;;18.20;12.40;;;-4.20;99.90;;;;;;5090192;28;20431;-73
2022/01/24 10:44:59;;;;;;;16.87;12.67;;;-5.00;99.90;;;;;;5094173;28;20786;-75
2022/01/24 10:47:31;;;;;;;15.37;11.30;;;-4.90;99.90;;;;;;5093129;28;20590;-77
2022/01/24 10:49:59;;;;;;;19.83;12.97;;;-4.70;99.90;;;;;;5094424;28;20410;-74
2022/01/24 10:52:28;;;;;;;17.97;13.30;;;-4.30;99.90;;;;;;5094684;28;20394;-78
2022/01/24 10:55:18;;;;;;;21.93;14.33;;;-4.40;99.90;;;;;;5079360;28;20468;-77
2022/01/24 10:57:46;;;;;;;20.43;12.67;;;-4.40;99.90;;;;;;5074470;28;20432;-74
2022/01/24 11:00:31;;;;;;;23.00;14.70;;;-4.10;99.90;;;;;;5074581;28;20392;-75
2022/01/24 11:03:02;;;;;;;22.83;14.13;;;-4.50;99.90;;;;;;5072539;28;20406;-75
2022/01/24 11:05:39;;;;;;;20.07;12.37;;;-3.80;99.90;;;;;;5072984;28;20412;-74
2022/01/24 11:08:17;;;;;;;22.23;12.17;;;-4.00;99.90;;;;;;5074748;28;20454;-77
2022/01/24 11:10:45;;;;;;;20.43;13.30;;;-4.10;99.90;;;;;;5073534;28;20407;-73
2022/01/24 11:13:13;;;;;;;18.47;11.47;;;-3.80;99.90;;;;;;5078611;28;20463;-74
2022/01/24 11:15:44;;;;;;;20.53;13.20;;;-4.00;99.90;;;;;;5094626;28;20437;-74
2022/01/24 11:18:15;;;;;;;17.33;12.43;;;-4.40;99.90;;;;;;5093667;28;20732;-75
2022/01/24 11:20:45;;;;;;;14.90;11.87;;;-4.30;99.90;;;;;;5078409;28;20471;-74
2022/01/24 11:23:12;;;;;;;17.03;12.03;;;-4.60;99.90;;;;;;5073702;28;20400;-77
2022/01/24 11:25:43;;;;;;;16.17;11.07;;;-4.50;99.90;;;;;;5074679;28;20850;-75
2022/01/24 11:28:11;;;;;;;19.17;13.20;;;-3.60;99.90;;;;;;5074700;28;20531;-75
2022/01/24 11:30:52;;;;;;;19.87;12.50;;;-2.90;99.90;;;;;;5074335;28;20216;-73
2022/01/24 11:33:22;;;;;;;17.60;12.10;;;-3.30;99.90;;;;;;5074811;28;20155;-73
2022/01/24 11:35:51;;;;;;;16.83;12.80;;;-3.60;99.90;;;;;;5074318;28;20195;-73
2022/01/24 11:38:38;;;;;;;16.77;11.77;;;-3.40;99.90;;;;;;5076874;28;20495;-73
2022/01/24 11:41:16;;;;;;;17.07;10.80;;;-3.60;99.90;;;;;;5078213;28;20461;-74
2022/01/24 11:43:46;;;;;;;17.23;12.93;;;-3.20;99.90;;;;;;5086671;28;20436;-73
2022/01/24 11:46:37;;;;;;;16.80;11.47;;;-3.40;99.90;;;;;;5097049;28;20498;-75
2022/01/24 11:49:26;;;;;;;21.77;12.40;;;-3.20;99.90;;;;;;5097264;28;20183;-74
2022/01/24 11:52:01;;;;;;;14.93;10.63;;;-3.40;99.90;;;;;;5098387;28;20391;-74
2022/01/24 11:57:17;;;;;;;26.50;16.57;;;-3.00;99.90;;;;;;5075833;28;20181;-73
2022/01/24 11:59:44;;;;;;;18.47;13.17;;;-2.90;99.90;;;;;;5097006;28;20174;-75
2022/01/24 12:02:13;;;;;;;16.00;11.80;;;-2.90;99.90;;;;;;5097186;28;20487;-75
2022/01/24 12:05:08;;;;;;;16.70;12.47;;;-2.30;99.90;;;;;;5096656;28;20167;-74
2022/01/24 12:07:50;;;;;;;15.17;10.27;;;-2.50;99.90;;;;;;5097151;28;20202;-73
2022/01/24 12:10:23;;;;;;;17.07;11.00;;;-2.30;99.90;;;;;;5096547;28;20202;-75
2022/01/24 12:12:59;;;;;;;17.17;13.07;;;-2.50;99.90;;;;;;5097137;28;20170;-79
2022/01/24 12:15:37;;;;;;;32.00;20.67;;;-2.60;99.90;;;;;;5080341;28;20581;-76
2022/01/24 12:18:26;;;;;;;20.23;12.87;;;-2.40;99.90;;;;;;5076336;28;20274;-75
2022/01/24 12:20:55;;;;;;;19.17;13.73;;;-3.10;99.90;;;;;;5071820;28;20492;-75
2022/01/24 12:23:27;;;;;;;17.67;11.67;;;-2.90;99.90;;;;;;5077037;28;20273;-75
2022/01/24 12:26:01;;;;;;;17.27;12.17;;;-3.00;99.90;;;;;;5075090;28;20179;-74
2022/01/24 12:28:40;;;;;;;18.03;12.47;;;-3.10;99.90;;;;;;5075898;28;20620;-74
2022/01/24 12:31:26;;;;;;;20.73;12.90;;;-2.60;99.90;;;;;;5076504;28;20183;-78
2022/01/24 12:34:04;;;;;;;17.63;12.70;;;-2.40;99.90;;;;;;5077188;28;20167;-76
2022/01/24 12:36:46;;;;;;;15.37;11.83;;;-2.60;99.90;;;;;;5076657;28;20162;-75
2022/01/24 12:39:38;;;;;;;15.07;11.90;;;-2.50;99.90;;;;;;5076475;28;20186;-74
2022/01/24 12:42:18;;;;;;;18.13;11.67;;;-2.60;99.90;;;;;;5076858;28;20605;-74
2022/01/24 12:47:15;;;;;;;17.70;13.40;;;-2.80;99.90;;;;;;5076273;28;20168;-73
2022/01/24 12:49:43;;;;;;;19.13;12.43;;;-2.70;99.90;;;;;;5075147;28;20185;-78
2022/01/24 12:52:11;;;;;;;17.17;12.63;;;-2.80;99.90;;;;;;5076432;28;20255;-73
2022/01/24 12:54:43;;;;;;;20.87;13.03;;;-2.50;99.90;;;;;;5075411;28;20199;-74
2022/01/24 12:57:11;;;;;;;20.13;13.67;;;-2.70;99.90;;;;;;5076404;28;20230;-75
2022/01/24 12:59:39;;;;;;;20.53;15.03;;;-2.90;99.90;;;;;;5075723;28;20183;-79
2022/01/24 13:02:08;;;;;;;19.30;13.73;;;-2.70;99.90;;;;;;5076562;28;20563;-74
2022/01/24 13:04:39;;;;;;;22.27;14.17;;;-2.20;99.90;;;;;;5076562;28;20155;-74
2022/01/24 13:07:09;;;;;;;21.97;12.70;;;-2.60;99.90;;;;;;5076488;28;20199;-76
2022/01/24 13:09:38;;;;;;;17.53;13.87;;;-2.70;99.90;;;;;;5080798;28;20239;-75
2022/01/24 13:12:10;;;;;;;21.83;14.33;;;-2.50;99.90;;;;;;5092675;28;20186;-76
2022/01/24 13:14:52;;;;;;;20.53;13.70;;;-2.60;99.90;;;;;;5096267;28;20310;-73
2022/01/24 13:22:55;;;;;;;20.23;12.90;;;-2.80;99.90;;;;;;5096026;28;20185;-74
2022/01/24 13:25:26;;;;;;;18.87;13.03;;;-2.80;99.90;;;;;;5096041;28;20178;-74
2022/01/24 13:28:03;;;;;;;20.83;12.10;;;-2.90;99.90;;;;;;5095118;28;20222;-75
2022/01/24 13:30:50;;;;;;;22.77;13.27;;;-2.70;99.90;;;;;;5094930;28;20562;-74
2022/01/24 13:33:24;;;;;;;26.47;14.80;;;-2.90;99.90;;;;;;5094552;28;20163;-74
2022/01/24 13:36:05;;;;;;;27.17;16.03;;;-2.60;99.90;;;;;;5094017;28;20264;-74
2022/01/24 13:38:36;;;;;;;21.27;14.17;;;-2.60;99.90;;;;;;5095718;28;20661;-77
2022/01/24 13:41:10;;;;;;;17.50;12.90;;;-2.60;99.90;;;;;;5094173;28;20202;-74
2022/01/24 13:43:45;;;;;;;15.03;12.23;;;-2.70;99.90;;;;;;5081421;28;20198;-74
2022/01/24 13:46:14;;;;;;;19.73;13.93;;;-2.50;99.90;;;;;;5094171;28;20174;-75
2022/01/24 13:49:03;;;;;;;16.00;11.30;;;-2.40;99.90;;;;;;5095623;28;20207;-73
2022/01/24 13:51:46;;;;;;;22.37;13.97;;;-2.50;99.90;;;;;;5095712;28;20155;-75
2022/01/24 13:54:24;;;;;;;19.30;13.50;;;-2.40;99.90;;;;;;5094888;28;20562;-75
2022/01/24 13:57:06;;;;;;;16.97;12.07;;;-2.30;99.90;;;;;;5095594;28;20446;-78
2022/01/24 13:59:33;;;;;;;21.37;13.53;;;-2.60;99.90;;;;;;5095442;28;20242;-75
2022/01/24 14:02:02;;;;;;;28.23;13.70;;;-2.50;99.90;;;;;;5095557;28;20572;-75
2022/01/24 14:04:37;;;;;;;22.23;12.67;;;-2.50;99.90;;;;;;5093768;28;20201;-73
2022/01/24 14:07:09;;;;;;;18.70;12.77;;;-2.70;99.90;;;;;;5095476;28;20223;-73
2022/01/24 14:09:49;;;;;;;18.83;12.37;;;-2.80;99.90;;;;;;5083955;28;20195;-74
2022/01/24 14:12:18;;;;;;;17.97;12.07;;;-3.00;99.90;;;;;;5075062;28;20167;-75
2022/01/24 14:19:43;;;;;;;17.53;12.57;;;-3.20;99.90;;;;;;5075065;28;20167;-74
2022/01/24 14:22:13;;;;;;;19.90;14.30;;;-3.30;99.90;;;;;;5074544;28;20167;-73
2022/01/24 14:24:49;;;;;;;19.43;14.30;;;-3.20;99.90;;;;;;5073956;28;20163;-73
2022/01/24 14:27:45;;;;;;;19.47;13.23;;;-3.10;99.90;;;;;;5075635;28;20167;-75
2022/01/24 14:30:26;;;;;;;17.73;13.33;;;-3.20;99.90;;;;;;5075132;28;20180;-74
2022/01/24 14:33:17;;;;;;;21.13;11.83;;;-3.10;99.90;;;;;;5076655;28;20205;-74
2022/01/24 14:35:53;;;;;;;18.77;12.57;;;-3.30;99.90;;;;;;5087013;28;20586;-73
2022/01/24 14:38:32;;;;;;;17.53;11.90;;;-3.30;99.90;;;;;;5074616;28;20820;-73
2022/01/24 14:41:05;;;;;;;17.73;12.40;;;-3.30;99.90;;;;;;5075061;28;20487;-73
2022/01/24 14:46:46;;;;;;;20.10;13.23;;;-2.60;99.90;;;;;;5074811;28;20190;-78
2022/01/24 14:49:17;;;;;;;17.40;13.30;;;-2.60;99.90;;;;;;5074798;28;20202;-78
2022/01/24 14:51:45;;;;;;;24.97;15.70;;;-3.00;99.90;;;;;;5074666;28;20175;-80
2022/01/24 14:54:20;;;;;;;17.67;12.73;;;-2.80;99.90;;;;;;5073030;28;20583;-75
2022/01/24 14:56:48;;;;;;;18.07;11.90;;;-3.00;99.90;;;;;;5073899;28;20198;-80